createdAt,value
2022-07-27T00:01:20.676Z,2.10
2022-07-27T00:03:49.802Z,1.80
2022-07-27T00:06:18.202Z,2.13
2022-07-27T00:08:45.779Z,2.27
2022-07-27T00:11:13.961Z,1.87
2022-07-27T00:13:42.781Z,2.30
2022-07-27T00:16:10.786Z,2.13
2022-07-27T00:18:38.726Z,1.50
2022-07-27T00:21:06.514Z,1.87
2022-07-27T00:23:34.605Z,2.00
2022-07-27T00:26:02.278Z,1.80
2022-07-27T00:28:29.968Z,2.13
2022-07-27T00:30:59.246Z,1.80
2022-07-27T00:33:27.637Z,2.40
2022-07-27T00:35:55.805Z,2.30
2022-07-27T00:38:24.432Z,2.27
2022-07-27T00:40:53.877Z,2.07
2022-07-27T00:43:22.575Z,1.83
2022-07-27T00:45:51.383Z,2.03
2022-07-27T00:48:19.163Z,2.17
2022-07-27T00:50:49.284Z,1.60
2022-07-27T00:53:17.168Z,1.50
2022-07-27T00:55:46.433Z,2.20
2022-07-27T00:58:15.271Z,1.97
2022-07-27T01:00:43.427Z,2.43
2022-07-27T01:03:11.370Z,2.00
2022-07-27T01:05:43.325Z,2.03
2022-07-27T01:08:14.842Z,2.80
2022-07-27T01:10:44.824Z,2.00
2022-07-27T01:13:19.029Z,1.80
2022-07-27T01:15:46.825Z,1.83
2022-07-27T01:18:35.954Z,2.23
2022-07-27T01:21:10.080Z,2.37
2022-07-27T01:23:37.878Z,2.03
2022-07-27T01:26:07.871Z,1.87
2022-07-27T01:28:35.422Z,4.07
2022-07-27T01:31:03.127Z,2.03
2022-07-27T01:33:31.302Z,2.70
2022-07-27T01:35:59.188Z,2.50
2022-07-27T01:38:27.334Z,2.57
2022-07-27T01:40:57.313Z,2.33
2022-07-27T01:43:26.022Z,2.87
2022-07-27T01:45:54.231Z,2.60
2022-07-27T01:48:22.217Z,2.30
2022-07-27T01:50:51.225Z,2.10
2022-07-27T01:53:21.775Z,2.53
2022-07-27T01:55:51.862Z,2.57
2022-07-27T01:58:20.253Z,2.67
2022-07-27T02:00:50.011Z,2.50
2022-07-27T02:03:18.677Z,2.37
2022-07-27T02:05:47.026Z,2.43
2022-07-27T02:08:14.637Z,2.70
2022-07-27T02:11:02.245Z,2.67
2022-07-27T02:13:30.530Z,3.43
2022-07-27T02:15:58.626Z,2.70
2022-07-27T02:18:33.047Z,2.80
2022-07-27T02:21:03.081Z,2.93
2022-07-27T02:23:31.566Z,2.97
2022-07-27T02:26:00.038Z,3.30
2022-07-27T02:28:28.765Z,2.37
2022-07-27T02:30:56.382Z,2.77
2022-07-27T02:33:24.520Z,3.00
2022-07-27T02:35:52.314Z,2.80
2022-07-27T02:38:20.213Z,3.20
2022-07-27T02:40:47.888Z,3.30
2022-07-27T02:43:15.495Z,3.57
2022-07-27T02:45:43.334Z,3.00
2022-07-27T02:48:14.527Z,3.13
2022-07-27T02:50:42.132Z,2.50
2022-07-27T02:53:09.974Z,2.73
2022-07-27T02:55:38.156Z,2.80
2022-07-27T02:58:05.683Z,3.30
2022-07-27T03:00:34.262Z,3.23
2022-07-27T03:03:02.673Z,3.40
2022-07-27T03:05:30.473Z,3.60
2022-07-27T03:07:58.198Z,3.47
2022-07-27T03:10:26.194Z,2.70
2022-07-27T03:12:54.345Z,4.30
2022-07-27T03:15:22.200Z,3.67
2022-07-27T03:17:49.850Z,4.13
2022-07-27T03:20:18.337Z,3.63
2022-07-27T03:22:46.713Z,3.20
2022-07-27T03:25:14.334Z,3.30
2022-07-27T03:27:41.833Z,5.07
2022-07-27T03:30:11.509Z,3.63
2022-07-27T03:32:39.148Z,4.00
2022-07-27T03:35:07.691Z,3.20
2022-07-27T03:37:35.837Z,3.87
2022-07-27T03:40:03.832Z,3.60
2022-07-27T03:42:32.375Z,3.63
2022-07-27T03:44:59.847Z,3.47
2022-07-27T03:47:27.442Z,3.40
2022-07-27T03:49:55.006Z,5.43
2022-07-27T03:52:22.623Z,3.17
2022-07-27T03:54:50.453Z,4.20
2022-07-27T03:57:18.001Z,3.90
2022-07-27T03:59:45.562Z,3.90
2022-07-27T04:02:13.117Z,3.80
2022-07-27T04:04:41.258Z,3.60
2022-07-27T04:07:09.449Z,3.40
2022-07-27T04:09:37.925Z,3.60
2022-07-27T04:12:10.751Z,3.77
2022-07-27T04:14:38.532Z,3.63
2022-07-27T04:17:06.181Z,4.30
2022-07-27T04:19:33.819Z,3.83
2022-07-27T04:22:01.935Z,3.90
2022-07-27T04:24:29.713Z,3.10
2022-07-27T04:26:57.827Z,3.77
2022-07-27T04:29:25.521Z,3.20
2022-07-27T04:31:53.193Z,3.33
2022-07-27T04:34:21.291Z,3.97
2022-07-27T04:36:50.049Z,4.00
2022-07-27T04:39:17.687Z,3.43
2022-07-27T04:41:45.534Z,3.13
2022-07-27T04:44:13.178Z,3.63
2022-07-27T04:46:40.875Z,3.43
2022-07-27T04:49:08.703Z,3.60
2022-07-27T04:51:36.394Z,3.93
2022-07-27T04:54:04.413Z,3.60
2022-07-27T04:56:32.494Z,3.10
2022-07-27T04:59:00.036Z,3.30
2022-07-27T05:01:33.090Z,2.80
2022-07-27T05:04:04.227Z,3.53
2022-07-27T05:06:33.471Z,3.27
2022-07-27T05:09:01.180Z,3.37
2022-07-27T05:11:28.709Z,3.50
2022-07-27T05:13:57.324Z,3.63
2022-07-27T05:16:28.832Z,3.10
2022-07-27T05:18:58.006Z,3.10
2022-07-27T05:21:27.901Z,3.43
2022-07-27T05:23:55.826Z,2.50
2022-07-27T05:26:23.664Z,3.00
2022-07-27T05:28:51.545Z,3.40
2022-07-27T05:31:19.152Z,3.20
2022-07-27T05:33:49.239Z,3.37
2022-07-27T05:36:18.924Z,3.03
2022-07-27T05:38:46.922Z,3.50
2022-07-27T05:41:14.698Z,3.33
2022-07-27T05:43:42.215Z,2.90
2022-07-27T05:46:09.998Z,3.70
2022-07-27T05:48:37.886Z,3.40
2022-07-27T05:51:06.046Z,2.87
2022-07-27T05:53:36.047Z,2.63
2022-07-27T05:56:04.634Z,2.03
2022-07-27T05:58:32.500Z,2.40
2022-07-27T06:01:00.545Z,2.20
2022-07-27T06:03:28.261Z,2.10
2022-07-27T06:06:16.080Z,2.47
2022-07-27T06:08:44.902Z,1.87
2022-07-27T06:11:13.943Z,1.60
2022-07-27T06:13:41.844Z,1.53
2022-07-27T06:16:11.181Z,1.73
2022-07-27T06:18:40.127Z,1.97
2022-07-27T06:21:08.915Z,1.67
2022-07-27T06:23:36.704Z,1.80
2022-07-27T06:26:05.115Z,1.83
2022-07-27T06:28:33.020Z,1.70
2022-07-27T06:31:01.251Z,1.70
2022-07-27T06:33:29.971Z,1.50
2022-07-27T06:36:01.499Z,1.73
2022-07-27T06:38:32.348Z,1.33
2022-07-27T06:41:00.175Z,1.70
2022-07-27T06:43:33.022Z,1.77
2022-07-27T06:46:00.818Z,1.73
2022-07-27T06:48:29.207Z,1.57
2022-07-27T06:50:57.716Z,1.57
2022-07-27T06:53:25.646Z,1.10
2022-07-27T06:55:53.721Z,1.43
2022-07-27T06:58:23.899Z,1.20
2022-07-27T07:00:51.893Z,1.70
2022-07-27T07:03:19.417Z,1.60
2022-07-27T07:05:49.173Z,1.33
2022-07-27T07:08:17.375Z,1.20
2022-07-27T07:10:46.714Z,1.10
2022-07-27T07:13:14.401Z,1.00
2022-07-27T07:15:44.440Z,1.00
2022-07-27T07:18:14.933Z,1.30
2022-07-27T07:20:43.205Z,1.50
2022-07-27T07:23:12.598Z,1.20
2022-07-27T07:25:41.204Z,1.57
2022-07-27T07:28:09.210Z,1.87
2022-07-27T07:30:37.304Z,1.27
2022-07-27T07:33:05.819Z,1.13
2022-07-27T07:35:34.051Z,1.23
2022-07-27T07:38:02.521Z,1.03
2022-07-27T07:40:43.443Z,1.20
2022-07-27T07:43:14.276Z,1.47
2022-07-27T07:45:50.537Z,1.23
2022-07-27T07:48:23.443Z,1.43
2022-07-27T07:50:53.978Z,1.30
2022-07-27T07:53:25.492Z,1.10
2022-07-27T07:55:56.785Z,1.27
2022-07-27T07:58:24.421Z,1.60
2022-07-27T08:00:52.075Z,1.20
2022-07-27T08:03:20.436Z,1.50
2022-07-27T08:05:48.382Z,1.33
2022-07-27T08:08:17.222Z,2.03
2022-07-27T08:10:44.969Z,1.40
2022-07-27T08:13:14.223Z,1.70
2022-07-27T08:15:46.290Z,1.63
2022-07-27T08:18:14.182Z,1.60
2022-07-27T08:20:42.156Z,1.40
2022-07-27T08:23:12.720Z,1.23
2022-07-27T08:25:40.919Z,1.17
2022-07-27T08:28:08.837Z,2.43
2022-07-27T08:30:36.396Z,1.47
2022-07-27T08:33:06.318Z,1.40
2022-07-27T08:35:35.639Z,1.73
2022-07-27T08:38:09.447Z,1.50
2022-07-27T08:40:44.307Z,1.57
2022-07-27T08:43:23.445Z,1.50
2022-07-27T08:46:01.518Z,1.20
2022-07-27T08:48:32.210Z,1.00
2022-07-27T08:51:00.041Z,2.10
2022-07-27T08:53:35.635Z,1.10
2022-07-27T08:56:20.540Z,1.30
2022-07-27T08:58:48.585Z,1.03
2022-07-27T09:01:16.236Z,0.90
2022-07-27T09:03:44.079Z,1.17
2022-07-27T09:06:11.753Z,0.90
2022-07-27T09:08:41.986Z,1.20
2022-07-27T09:11:16.202Z,0.97
2022-07-27T09:13:43.901Z,1.20
2022-07-27T09:16:18.233Z,1.70
2022-07-27T09:18:47.920Z,0.90
2022-07-27T09:21:25.064Z,0.87
2022-07-27T09:24:36.780Z,1.03
2022-07-27T09:27:05.881Z,0.80
2022-07-27T09:29:37.459Z,0.90
2022-07-27T09:32:18.119Z,1.10
2022-07-27T09:34:45.858Z,1.40
2022-07-27T09:37:28.835Z,1.07
2022-07-27T09:40:29.025Z,1.03
2022-07-27T09:44:19.718Z,1.63
2022-07-27T09:46:08.304Z,1.20
2022-07-27T09:48:37.214Z,1.40
2022-07-27T09:51:55.852Z,1.03
2022-07-27T09:54:11.886Z,1.20
2022-07-27T09:56:39.823Z,1.17
2022-07-27T09:59:07.526Z,1.70
2022-07-27T10:01:47.748Z,1.47
2022-07-27T10:04:18.555Z,2.10
2022-07-27T10:07:01.728Z,1.10
2022-07-27T10:09:33.409Z,1.00
2022-07-27T10:12:02.058Z,1.13
2022-07-27T10:14:29.622Z,1.00
2022-07-27T10:16:57.913Z,0.90
2022-07-27T10:19:52.499Z,1.20
2022-07-27T10:22:51.320Z,1.23
2022-07-27T10:25:20.935Z,1.10
2022-07-27T10:28:16.582Z,1.17
2022-07-27T10:30:49.427Z,1.10
2022-07-27T10:33:55.444Z,1.13
2022-07-27T10:36:31.167Z,1.10
2022-07-27T10:39:08.104Z,1.20
2022-07-27T10:41:43.907Z,0.90
2022-07-27T10:44:17.717Z,1.37
2022-07-27T10:46:53.409Z,1.17
2022-07-27T10:49:40.481Z,1.13
2022-07-27T10:53:11.254Z,1.43
2022-07-27T10:55:49.189Z,1.20
2022-07-27T10:58:43.353Z,1.33
2022-07-27T11:01:20.184Z,1.20
2022-07-27T11:03:58.551Z,1.10
2022-07-27T11:06:55.455Z,1.33
2022-07-27T11:12:17.395Z,1.00
2022-07-27T11:14:57.602Z,1.20
2022-07-27T11:20:31.284Z,1.23
2022-07-27T11:23:50.787Z,1.20
2022-07-27T11:26:02.258Z,1.10
2022-07-27T11:28:36.375Z,0.97
2022-07-27T11:31:07.900Z,1.33
2022-07-27T11:33:37.498Z,1.53
2022-07-27T11:36:08.159Z,1.30
2022-07-27T11:38:55.170Z,1.00
2022-07-27T11:42:04.720Z,0.87
2022-07-27T11:44:19.354Z,1.07
2022-07-27T11:46:56.262Z,1.20
2022-07-27T11:49:31.944Z,1.20
2022-07-27T11:52:09.950Z,1.13
2022-07-27T11:54:42.627Z,1.10
2022-07-27T11:57:17.112Z,1.00
2022-07-27T11:59:48.328Z,1.20
2022-07-27T12:02:22.612Z,1.17
2022-07-27T12:04:59.144Z,1.20
2022-07-27T12:07:35.857Z,1.17
2022-07-27T12:10:07.170Z,0.93
2022-07-27T12:12:39.584Z,1.10
2022-07-27T12:18:09.114Z,1.20
2022-07-27T12:20:37.841Z,1.67
2022-07-27T12:23:10.082Z,1.40
2022-07-27T12:25:39.910Z,1.50
2022-07-27T12:28:18.699Z,1.63
2022-07-27T12:30:52.812Z,1.17
2022-07-27T12:33:37.763Z,0.93
2022-07-27T12:36:09.894Z,1.30
2022-07-27T12:38:50.805Z,1.10
2022-07-27T12:41:38.241Z,1.60
2022-07-27T12:44:13.329Z,1.50
2022-07-27T12:47:27.374Z,1.47
2022-07-27T12:50:18.275Z,0.93
2022-07-27T12:52:55.662Z,2.10
2022-07-27T12:55:24.388Z,1.33
2022-07-27T12:57:57.249Z,1.10
2022-07-27T13:00:33.952Z,1.00
2022-07-27T13:03:04.818Z,1.23
2022-07-27T13:05:36.142Z,1.20
2022-07-27T13:08:05.036Z,1.10
2022-07-27T13:10:33.710Z,1.10
2022-07-27T13:13:01.287Z,1.00
2022-07-27T13:15:29.155Z,1.30
2022-07-27T13:17:56.767Z,1.03
2022-07-27T13:20:27.118Z,1.10
2022-07-27T13:22:55.512Z,1.10
2022-07-27T13:25:23.282Z,1.20
2022-07-27T13:27:51.561Z,1.47
2022-07-27T13:30:19.826Z,1.47
2022-07-27T13:32:50.068Z,1.43
2022-07-27T13:35:18.024Z,1.23
2022-07-27T13:37:47.537Z,1.20
2022-07-27T13:40:16.405Z,1.50
2022-07-27T13:42:44.320Z,1.10
2022-07-27T13:45:13.930Z,1.30
2022-07-27T13:47:43.273Z,1.13
2022-07-27T13:50:19.704Z,1.37
2022-07-27T13:52:50.862Z,1.00
2022-07-27T13:55:19.098Z,0.93
2022-07-27T13:57:47.394Z,1.57
2022-07-27T14:00:17.112Z,1.40
2022-07-27T14:02:47.159Z,1.60
2022-07-27T14:05:18.361Z,1.00
2022-07-27T14:07:48.326Z,1.10
2022-07-27T14:10:31.656Z,1.17
2022-07-27T14:13:07.898Z,1.20
2022-07-27T14:15:50.467Z,0.97
2022-07-27T14:18:30.881Z,0.90
2022-07-27T14:21:07.620Z,1.50
2022-07-27T14:23:37.454Z,1.40
2022-07-27T14:26:08.196Z,1.03
2022-07-27T14:28:39.106Z,1.00
2022-07-27T14:31:12.388Z,1.27
2022-07-27T14:33:40.961Z,1.40
2022-07-27T14:36:10.094Z,1.30
2022-07-27T14:38:39.474Z,0.90
2022-07-27T14:41:08.167Z,1.13
2022-07-27T14:43:38.494Z,0.90
2022-07-27T14:46:06.209Z,1.10
2022-07-27T14:49:05.838Z,1.00
2022-07-27T14:51:21.614Z,1.23
2022-07-27T14:53:50.038Z,1.47
2022-07-27T14:56:17.893Z,0.90
2022-07-27T14:58:45.538Z,1.30
2022-07-27T15:01:16.630Z,1.17
2022-07-27T15:03:45.444Z,1.33
2022-07-27T15:06:12.951Z,1.30
2022-07-27T15:08:40.486Z,1.53
2022-07-27T15:11:08.506Z,1.10
2022-07-27T15:13:36.372Z,1.07
2022-07-27T15:16:06.435Z,1.03
2022-07-27T15:18:38.439Z,1.00
2022-07-27T15:21:12.989Z,0.87
2022-07-27T15:23:44.716Z,0.80
2022-07-27T15:26:13.495Z,1.10
2022-07-27T15:28:44.122Z,1.17
2022-07-27T15:31:13.656Z,1.10
2022-07-27T15:33:41.769Z,1.23
2022-07-27T15:36:09.816Z,1.13
2022-07-27T15:38:57.310Z,1.80
2022-07-27T15:41:24.869Z,1.60
2022-07-27T15:43:52.604Z,1.03
2022-07-27T15:46:27.475Z,1.00
2022-07-27T15:48:56.453Z,1.47
2022-07-27T15:51:25.167Z,1.20
2022-07-27T15:53:54.738Z,1.27
2022-07-27T15:56:24.010Z,1.43
2022-07-27T15:58:51.790Z,1.20
2022-07-27T16:01:21.115Z,1.20
2022-07-27T16:03:52.238Z,1.30
2022-07-27T16:06:20.098Z,0.97
2022-07-27T16:08:48.674Z,1.00
2022-07-27T16:11:16.586Z,1.20
2022-07-27T16:13:44.149Z,1.03
2022-07-27T16:16:30.290Z,1.30
2022-07-27T16:19:12.638Z,1.40
2022-07-27T16:21:55.461Z,1.30
2022-07-27T16:24:27.237Z,1.03
2022-07-27T16:26:56.150Z,1.00
2022-07-27T16:29:24.226Z,1.30
2022-07-27T16:31:58.482Z,1.30
2022-07-27T16:34:30.944Z,0.93
2022-07-27T16:37:00.957Z,1.30
2022-07-27T16:39:28.916Z,1.00
2022-07-27T16:41:58.715Z,1.33
2022-07-27T16:44:26.371Z,1.10
2022-07-27T16:46:54.451Z,1.00
2022-07-27T16:49:36.330Z,1.00
2022-07-27T16:52:06.750Z,0.90
2022-07-27T16:54:39.294Z,1.00
2022-07-27T16:57:10.689Z,0.80
2022-07-27T16:59:39.306Z,0.90
2022-07-27T17:02:07.570Z,0.90
2022-07-27T17:04:35.361Z,0.90
2022-07-27T17:07:03.738Z,1.00
2022-07-27T17:09:32.999Z,1.00
2022-07-27T17:12:00.655Z,1.10
2022-07-27T17:14:28.307Z,1.30
2022-07-27T17:16:56.098Z,0.80
2022-07-27T17:19:24.136Z,1.20
2022-07-27T17:21:52.296Z,1.00
2022-07-27T17:24:20.509Z,1.20
2022-07-27T17:26:48.539Z,1.00
2022-07-27T17:29:16.708Z,0.80
2022-07-27T17:31:44.523Z,1.00
2022-07-27T17:34:12.215Z,1.07
2022-07-27T17:36:40.873Z,1.03
2022-07-27T17:39:08.933Z,1.33
2022-07-27T17:41:38.587Z,1.10
2022-07-27T17:44:07.104Z,1.20
2022-07-27T17:46:38.751Z,1.33
2022-07-27T17:49:06.986Z,0.97
2022-07-27T17:51:34.957Z,0.80
2022-07-27T17:54:03.948Z,0.80
2022-07-27T17:56:32.720Z,0.83
2022-07-27T17:59:14.395Z,1.00
2022-07-27T18:01:48.760Z,1.07
2022-07-27T18:04:17.682Z,0.70
2022-07-27T18:06:45.742Z,0.83
2022-07-27T18:09:14.398Z,1.20
2022-07-27T18:11:42.238Z,0.70
2022-07-27T18:14:09.798Z,1.07
2022-07-27T18:16:40.859Z,0.93
2022-07-27T18:19:09.881Z,1.10
2022-07-27T18:21:38.449Z,1.00
2022-07-27T18:24:06.867Z,1.10
2022-07-27T18:26:38.205Z,1.00
2022-07-27T18:29:07.585Z,0.90
2022-07-27T18:31:35.580Z,1.03
2022-07-27T18:34:06.857Z,0.90
2022-07-27T18:36:38.962Z,1.10
2022-07-27T18:39:06.602Z,1.27
2022-07-27T18:41:34.412Z,1.27
2022-07-27T18:44:02.671Z,0.93
2022-07-27T18:46:30.929Z,1.47
2022-07-27T18:48:58.889Z,1.27
2022-07-27T18:51:26.601Z,1.40
2022-07-27T18:53:54.542Z,1.37
2022-07-27T18:56:22.078Z,1.40
2022-07-27T18:58:50.096Z,1.30
2022-07-27T19:01:17.613Z,1.90
2022-07-27T19:03:45.218Z,1.50
2022-07-27T19:06:17.899Z,1.57
2022-07-27T19:08:46.682Z,1.50
2022-07-27T19:11:15.268Z,1.43
2022-07-27T19:13:42.919Z,1.03
2022-07-27T19:16:10.456Z,1.50
2022-07-27T19:18:37.970Z,1.37
2022-07-27T19:21:05.919Z,1.23
2022-07-27T19:23:33.853Z,1.33
2022-07-27T19:26:01.396Z,1.30
2022-07-27T19:28:28.919Z,1.37
2022-07-27T19:30:57.109Z,1.77
2022-07-27T19:33:24.639Z,1.50
2022-07-27T19:35:52.719Z,1.50
2022-07-27T19:38:20.386Z,1.50
2022-07-27T19:40:48.251Z,1.67
2022-07-27T19:43:16.083Z,1.30
2022-07-27T19:45:44.290Z,1.20
2022-07-27T19:48:13.748Z,1.90
2022-07-27T19:50:42.572Z,1.40
2022-07-27T19:53:10.218Z,1.40
2022-07-27T19:55:38.003Z,1.60
2022-07-27T19:58:06.429Z,1.50
2022-07-27T20:00:34.675Z,1.23
2022-07-27T20:03:03.418Z,1.43
2022-07-27T20:05:31.324Z,1.27
2022-07-27T20:08:10.022Z,1.30
2022-07-27T20:10:38.305Z,1.40
2022-07-27T20:13:06.714Z,1.37
2022-07-27T20:15:34.402Z,1.27
2022-07-27T20:18:03.905Z,1.17
2022-07-27T20:20:32.378Z,1.30
2022-07-27T20:22:59.943Z,1.30
2022-07-27T20:25:27.574Z,1.33
2022-07-27T20:27:55.114Z,1.27
2022-07-27T20:30:23.392Z,1.57
2022-07-27T20:32:51.926Z,1.60
2022-07-27T20:35:20.702Z,1.53
2022-07-27T20:37:48.368Z,1.00
2022-07-27T20:40:16.797Z,1.77
2022-07-27T20:42:44.610Z,1.10
2022-07-27T20:45:14.738Z,1.40
2022-07-27T20:47:44.366Z,1.57
2022-07-27T20:50:15.470Z,1.30
2022-07-27T20:52:44.029Z,1.10
2022-07-27T20:55:13.318Z,1.03
2022-07-27T20:57:41.628Z,1.70
2022-07-27T21:00:11.856Z,1.50
2022-07-27T21:02:40.331Z,1.17
2022-07-27T21:05:09.862Z,1.63
2022-07-27T21:07:38.556Z,1.17
2022-07-27T21:10:08.282Z,1.20
2022-07-27T21:12:36.707Z,1.47
2022-07-27T21:15:11.231Z,1.40
2022-07-27T21:17:42.105Z,1.17
2022-07-27T21:20:11.897Z,1.50
2022-07-27T21:22:39.723Z,1.33
2022-07-27T21:25:07.851Z,1.30
2022-07-27T21:27:35.805Z,1.30
2022-07-27T21:30:09.776Z,1.30
2022-07-27T21:32:37.237Z,2.10
2022-07-27T21:35:07.378Z,1.37
2022-07-27T21:37:37.018Z,1.30
2022-07-27T21:40:08.067Z,1.77
2022-07-27T21:42:37.074Z,1.20
2022-07-27T21:45:08.146Z,1.63
2022-07-27T21:47:37.763Z,1.43
2022-07-27T21:50:07.109Z,1.13
2022-07-27T21:52:35.235Z,2.00
2022-07-27T21:55:03.087Z,1.33
2022-07-27T21:57:31.343Z,0.97
2022-07-27T21:59:58.835Z,1.50
2022-07-27T22:02:28.547Z,1.50
2022-07-27T22:04:56.178Z,1.60
2022-07-27T22:07:23.741Z,1.20
2022-07-27T22:09:51.283Z,1.10
2022-07-27T22:12:20.107Z,1.40
2022-07-27T22:14:48.121Z,1.50
2022-07-27T22:17:17.501Z,1.20
2022-07-27T22:19:47.330Z,1.20
2022-07-27T22:22:16.841Z,1.30
2022-07-27T22:24:45.833Z,1.50
2022-07-27T22:27:14.904Z,1.20
2022-07-27T22:29:44.631Z,1.33
2022-07-27T22:32:15.048Z,1.40
2022-07-27T22:34:44.720Z,1.80
2022-07-27T22:37:15.046Z,1.47
2022-07-27T22:39:44.400Z,1.10
2022-07-27T22:42:14.403Z,1.30
2022-07-27T22:44:44.268Z,1.60
2022-07-27T22:47:16.152Z,1.17
2022-07-27T22:49:45.807Z,1.50
2022-07-27T22:52:15.305Z,1.40
2022-07-27T22:54:46.332Z,1.33
2022-07-27T22:57:16.764Z,0.90
2022-07-27T22:59:46.148Z,0.80
2022-07-27T23:02:14.351Z,1.57
2022-07-27T23:04:44.873Z,1.67
2022-07-27T23:07:14.276Z,1.40
2022-07-27T23:09:41.947Z,1.17
2022-07-27T23:12:10.082Z,1.10
2022-07-27T23:14:37.531Z,1.50
2022-07-27T23:17:05.363Z,1.10
2022-07-27T23:19:33.071Z,1.10
2022-07-27T23:22:01.716Z,0.93
2022-07-27T23:24:30.119Z,1.00
2022-07-27T23:26:58.045Z,1.47
2022-07-27T23:29:25.931Z,2.23
2022-07-27T23:31:55.196Z,1.23
2022-07-27T23:34:26.457Z,1.10
2022-07-27T23:36:54.832Z,1.53
2022-07-27T23:39:26.146Z,1.50
2022-07-27T23:41:54.988Z,1.37
2022-07-27T23:44:27.242Z,1.63
2022-07-27T23:46:57.329Z,1.30
2022-07-27T23:49:26.955Z,1.83
2022-07-27T23:51:58.195Z,1.20
2022-07-27T23:54:27.529Z,1.03
2022-07-27T23:56:56.825Z,1.30
2022-07-27T23:59:26.031Z,1.30
